Oasis of the Seas — C6XS7 — position and weather

sailwx.info

Track history (hours):
 
Tides and Currents Weather Stations Pressure Air Temp Water Temp Dewpoint Dewpoint Depression Visibility Wind Speed Wind Dir Waves Ship Positions

Oasis of the Seas

Last reported at 2015-Jul-03 12:00 UTC. Time now 2015-Jul-03 20:13 UTC.
Position N 24°18' W 074°12'.

Length 360 m; draft 9.3 m.

Type: Passenger vessel. MMSI: 311020600.

Wind from 120 at 17 knots

Waves 1.5 meters (5 feet), 99 second period

Barometer 1020.0 mb
Air temperature 30.0 ° C
Visibility: greater than 5.4 NM
Dewpoint 28.7 ° C
Water temperature 30.0 ° C

Date/timePositionNaut miles runAvg speedWind from/ knotsBaromVisibWave heightAir tempDewpointWater temp
2015-Jul-03 12:00N 24°18' W 074°12'22919.1 120 / 171020.0 5.4 1.530.028.730.0
2015-Jul-03 00:00N 22°24' W 070°36'22618.9 090 / 131019.010.8 1.528.0 30.5
2015-Jul-02 12:00N 20°30' W 067°06'184 5.2 070 / 221020.0 5.4 1.528.026.730.0
2015-Jul-01 00:33N 18°14' W 064°55'25210.3
2015-Jun-30 00:00N 20°36' W 068°36'22819.0 090 / 241019.910.8 2.028.5 30.5
2015-Jun-29 12:00N 22°42' W 072°00'44812.4 120 / 261020.0 5.4 2.029.027.730.0
2015-Jun-28 00:00N 26°06' W 079°18'1419.9 190 / 141017.810.8 0.528.4 31.4
2015-Jun-27 23:17N 26°08' W 079°33'1013.7
2015-Jun-27 22:33N 26°08' W 079°44'1413.8
2015-Jun-27 21:34N 26°06' W 079°60'7 6.6
2015-Jun-27 20:31N 26°05' W 080°07'0 0.0
2015-Jun-27 19:31N 26°05' W 080°07'0 0.0
2015-Jun-27 18:31N 26°05' W 080°07'0 0.0
2015-Jun-27 17:31N 26°05' W 080°07'0 0.0
2015-Jun-27 16:31N 26°05' W 080°07'0 0.0
2015-Jun-27 15:22N 26°05' W 080°07'0 0.0
2015-Jun-27 14:25N 26°05' W 080°07'0 0.0
2015-Jun-27 13:25N 26°05' W 080°07'0 0.0
2015-Jun-27 12:25N 26°05' W 080°07'0 0.0
2015-Jun-27 11:28N 26°05' W 080°07'0 0.0
2015-Jun-27 10:28N 26°05' W 080°07'0 0.1
2015-Jun-27 09:33N 26°05' W 080°07'9 8.8
2015-Jun-27 08:33N 25°60' W 079°59'1716.9
2015-Jun-27 07:33N 25°43' W 079°56'11415.1
2015-Jun-27 00:00N 24°12' W 081°12'38715.7 080 / 91018.410.8 0.529.3 31.4
2015-Jun-25 23:23N 20°35' W 086°58'6 6.7
2015-Jun-25 22:33N 20°29' W 086°59'0 0.0
2015-Jun-25 21:33N 20°29' W 086°59'0 0.0
2015-Jun-25 20:33N 20°29' W 086°59'0 0.0
2015-Jun-25 19:33N 20°29' W 086°59'0 0.0
2015-Jun-25 18:33N 20°29' W 086°59'0 0.0
2015-Jun-25 17:30N 20°29' W 086°59'0 0.0
2015-Jun-25 16:33N 20°29' W 086°59'0 0.0
2015-Jun-25 15:33N 20°29' W 086°59'0 0.0
2015-Jun-25 14:33N 20°29' W 086°59'0 0.0
2015-Jun-25 13:33N 20°29' W 086°59'0 0.0
2015-Jun-25 12:33N 20°29' W 086°59'0 0.2
2015-Jun-25 11:34N 20°29' W 086°59'  
Track history (hours):
 
Tides and Currents Weather Stations Pressure Air Temp Water Temp Dewpoint Dewpoint Depression Visibility Wind Speed Wind Dir Waves Ship Positions

Oasis of the Seas

Last reported at 2015-Jul-03 12:00 UTC. Time now 2015-Jul-03 20:13 UTC.
Position N 24°18' W 074°12'.

Length 360 m; draft 9.3 m.

Type: Passenger vessel. MMSI: 311020600.

Wind from 120 at 17 knots

Waves 1.5 meters (5 feet), 99 second period

Barometer 1020.0 mb
Air temperature 30.0 ° C
Visibility: greater than 5.4 NM
Dewpoint 28.7 ° C
Water temperature 30.0 ° C

Date/timePositionNaut miles runAvg speedWind from/ knotsBaromVisibWave heightAir tempDewpointWater temp
2015-Jul-03 12:00N 24°18' W 074°12'22919.1 120 / 171020.0 5.4 1.530.028.730.0
2015-Jul-03 00:00N 22°24' W 070°36'22618.9 090 / 131019.010.8 1.528.0 30.5
2015-Jul-02 12:00N 20°30' W 067°06'184 5.2 070 / 221020.0 5.4 1.528.026.730.0
2015-Jul-01 00:33N 18°14' W 064°55'25210.3
2015-Jun-30 00:00N 20°36' W 068°36'22819.0 090 / 241019.910.8 2.028.5 30.5
2015-Jun-29 12:00N 22°42' W 072°00'44812.4 120 / 261020.0 5.4 2.029.027.730.0
2015-Jun-28 00:00N 26°06' W 079°18'1419.9 190 / 141017.810.8 0.528.4 31.4
2015-Jun-27 23:17N 26°08' W 079°33'1013.7
2015-Jun-27 22:33N 26°08' W 079°44'1413.8
2015-Jun-27 21:34N 26°06' W 079°60'7 6.6
2015-Jun-27 20:31N 26°05' W 080°07'0 0.0
2015-Jun-27 19:31N 26°05' W 080°07'0 0.0
2015-Jun-27 18:31N 26°05' W 080°07'0 0.0
2015-Jun-27 17:31N 26°05' W 080°07'0 0.0
2015-Jun-27 16:31N 26°05' W 080°07'0 0.0
2015-Jun-27 15:22N 26°05' W 080°07'0 0.0
2015-Jun-27 14:25N 26°05' W 080°07'0 0.0
2015-Jun-27 13:25N 26°05' W 080°07'0 0.0
2015-Jun-27 12:25N 26°05' W 080°07'0 0.0
2015-Jun-27 11:28N 26°05' W 080°07'0 0.0
2015-Jun-27 10:28N 26°05' W 080°07'0 0.1
2015-Jun-27 09:33N 26°05' W 080°07'9 8.8
2015-Jun-27 08:33N 25°60' W 079°59'1716.9
2015-Jun-27 07:33N 25°43' W 079°56'11415.1
2015-Jun-27 00:00N 24°12' W 081°12'38715.7 080 / 91018.410.8 0.529.3 31.4
2015-Jun-25 23:23N 20°35' W 086°58'6 6.7
2015-Jun-25 22:33N 20°29' W 086°59'0 0.0
2015-Jun-25 21:33N 20°29' W 086°59'0 0.0
2015-Jun-25 20:33N 20°29' W 086°59'0 0.0
2015-Jun-25 19:33N 20°29' W 086°59'0 0.0
2015-Jun-25 18:33N 20°29' W 086°59'0 0.0
2015-Jun-25 17:30N 20°29' W 086°59'0 0.0
2015-Jun-25 16:33N 20°29' W 086°59'0 0.0
2015-Jun-25 15:33N 20°29' W 086°59'0 0.0
2015-Jun-25 14:33N 20°29' W 086°59'0 0.0
2015-Jun-25 13:33N 20°29' W 086°59'0 0.0
2015-Jun-25 12:33N 20°29' W 086°59'0 0.2
2015-Jun-25 11:34N 20°29' W 086°59'  

Dump ship's entire track history